Whitleyville, Tennessee
Current Conditions -  °F | °C
As of 7:15 PM on Friday 28 Nov 2014 (Local Time) from KSRB Reporting Station
Clear Clear  
Wind Chill:   Ceiling: Unl
Heat Index:   Visibility: 10mi
Dew Point: -6°   Wind: 8mph
Humidity: 49%   Direction: 170°S
Pressure: 30.19"   Gusts: NA
Location:  36.45°N, 85.74°W
Report Text: KSRB 290115Z AUTO 17007KT 10SM CLR 04/M06 A3019 RMK
Loading
Personal Weather Stations






























Interactive Weather Map New forecast layout! Learn more

10-Day Weather Forecast

Advertisements
Track Severe Weather on mobile